createdAt,value
2022-11-18T00:01:13.047Z,99102.78
2022-11-18T00:03:40.567Z,99101.13
2022-11-18T00:06:09.725Z,99109.72
2022-11-18T00:08:36.373Z,99106.84
2022-11-18T00:11:07.464Z,99114.00
2022-11-18T00:13:52.824Z,99116.06
2022-11-18T00:16:19.590Z,99125.66
2022-11-18T00:18:46.449Z,99130.97
2022-11-18T00:21:13.285Z,99123.63
2022-11-18T00:23:40.200Z,99128.13
2022-11-18T00:26:14.221Z,99120.97
2022-11-18T00:28:41.725Z,99135.47
2022-11-18T00:31:10.734Z,99138.53
2022-11-18T00:33:37.940Z,99128.94
2022-11-18T00:36:06.298Z,99132.81
2022-11-18T00:38:33.101Z,99129.09
2022-11-18T00:41:07.507Z,99134.03
2022-11-18T00:43:34.740Z,99138.53
2022-11-18T00:46:01.501Z,99142.81
2022-11-18T00:48:28.328Z,99134.03
2022-11-18T00:50:57.182Z,99141.38
2022-11-18T00:53:25.869Z,99149.09
2022-11-18T00:55:53.055Z,99148.72
2022-11-18T00:58:19.799Z,99145.66
2022-11-18T01:00:50.003Z,99156.28
2022-11-18T01:03:16.663Z,99150.63
2022-11-18T01:05:43.338Z,99156.28
2022-11-18T01:08:11.752Z,99157.50
2022-11-18T01:10:39.097Z,99157.34
2022-11-18T01:13:22.960Z,99149.53
2022-11-18T01:15:54.766Z,99157.50
2022-11-18T01:18:24.327Z,99154.66
2022-11-18T01:20:51.167Z,99158.53
2022-11-18T01:23:19.752Z,99159.38
2022-11-18T01:25:48.181Z,99163.69
2022-11-18T01:28:18.865Z,99167.97
2022-11-18T01:30:49.806Z,99169.22
2022-11-18T01:33:16.387Z,99171.03
2022-11-18T01:35:44.324Z,99178.81
2022-11-18T01:38:12.393Z,99181.31
2022-11-18T01:40:39.331Z,99186.00
2022-11-18T01:43:18.237Z,99185.78
2022-11-18T01:45:47.591Z,99184.94
2022-11-18T01:48:27.056Z,99182.09
2022-11-18T01:50:56.602Z,99181.88
2022-11-18T01:53:29.346Z,99181.09
2022-11-18T01:55:58.306Z,99182.91
2022-11-18T01:58:29.217Z,99183.13
2022-11-18T02:00:55.847Z,99184.78
2022-11-18T02:03:22.713Z,99188.03
2022-11-18T02:05:50.399Z,99180.25
2022-11-18T02:08:17.851Z,99190.72
2022-11-18T02:10:44.608Z,99198.72
2022-11-18T02:13:11.953Z,99194.59
2022-11-18T02:15:49.441Z,99194.78
2022-11-18T02:18:40.801Z,99214.81
2022-11-18T02:21:31.870Z,99205.44
2022-11-18T02:24:13.519Z,99207.88
2022-11-18T02:27:15.087Z,99211.53
2022-11-18T02:29:56.297Z,99219.56
2022-11-18T02:32:26.732Z,99217.47
2022-11-18T02:35:00.616Z,99217.25
2022-11-18T02:37:35.383Z,99226.47
2022-11-18T02:40:11.422Z,99231.97
2022-11-18T02:42:39.533Z,99222.97
2022-11-18T02:45:09.700Z,99221.16
2022-11-18T02:47:37.579Z,99221.16
2022-11-18T02:50:11.060Z,99217.88
2022-11-18T02:52:39.155Z,99224.81
2022-11-18T02:55:08.494Z,99229.75
2022-11-18T02:57:36.294Z,99243.22
2022-11-18T03:00:04.252Z,99244.28
2022-11-18T03:02:48.409Z,99243.66
2022-11-18T03:05:40.188Z,99244.66
2022-11-18T03:08:12.792Z,99245.47
2022-11-18T03:10:49.999Z,99246.06
2022-11-18T03:13:23.889Z,99242.16
2022-11-18T03:16:07.305Z,99244.84
2022-11-18T03:18:42.990Z,99249.78
2022-11-18T03:21:34.347Z,99252.63
2022-11-18T03:24:11.800Z,99253.59
2022-11-18T03:26:46.425Z,99251.41
2022-11-18T03:29:18.575Z,99260.44
2022-11-18T03:31:58.376Z,99259.97
2022-11-18T03:34:34.751Z,99265.47
2022-11-18T03:37:07.668Z,99260.94
2022-11-18T03:39:40.215Z,99260.75
2022-11-18T03:42:08.649Z,99267.88
2022-11-18T03:44:38.411Z,99267.09
2022-11-18T03:47:21.504Z,99265.25
2022-11-18T03:49:53.679Z,99264.81
2022-11-18T03:52:24.610Z,99262.97
2022-11-18T03:54:53.103Z,99259.91
2022-11-18T03:57:30.974Z,99257.81
2022-11-18T04:00:05.040Z,99258.06
2022-11-18T04:02:32.128Z,99264.19
2022-11-18T04:05:00.294Z,99269.44
2022-11-18T04:07:45.763Z,99273.13
2022-11-18T04:10:35.464Z,99282.72
2022-11-18T04:13:06.857Z,99287.63
2022-11-18T04:15:36.384Z,99289.25
2022-11-18T04:18:03.274Z,99291.91
2022-11-18T04:20:31.746Z,99306.25
2022-11-18T04:22:58.404Z,99301.31
2022-11-18T04:25:25.136Z,99300.06
2022-11-18T04:27:51.937Z,99309.03
2022-11-18T04:30:19.658Z,99304.75
2022-11-18T04:32:46.430Z,99304.13
2022-11-18T04:35:13.430Z,99303.94
2022-11-18T04:37:40.037Z,99311.25
2022-11-18T04:40:07.348Z,99313.16
2022-11-18T04:42:33.984Z,99315.56
2022-11-18T04:45:00.800Z,99313.88
2022-11-18T04:47:27.498Z,99314.69
2022-11-18T04:49:54.185Z,99318.78
2022-11-18T04:52:20.946Z,99323.47
2022-11-18T04:54:47.585Z,99328.97
2022-11-18T04:57:14.417Z,99336.44
2022-11-18T04:59:41.139Z,99333.41
2022-11-18T05:02:07.985Z,99341.34
2022-11-18T05:04:35.615Z,99346.53
2022-11-18T05:07:04.048Z,99353.88
2022-11-18T05:09:32.196Z,99348.91
2022-11-18T05:12:18.036Z,99347.50
2022-11-18T05:14:49.538Z,99357.03
2022-11-18T05:17:17.089Z,99356.53
2022-11-18T05:19:43.913Z,99356.53
2022-11-18T05:22:10.530Z,99358.81
2022-11-18T05:24:37.362Z,99359.81
2022-11-18T05:27:04.044Z,99359.78
2022-11-18T05:29:30.768Z,99355.72
2022-11-18T05:31:57.682Z,99361.91
2022-11-18T05:34:24.377Z,99364.94
2022-11-18T05:36:51.559Z,99365.06
2022-11-18T05:39:18.767Z,99370.44
2022-11-18T05:42:04.240Z,99373.22
2022-11-18T05:44:30.947Z,99383.06
2022-11-18T05:46:57.685Z,99372.41
2022-11-18T05:49:24.428Z,99378.25
2022-11-18T05:51:51.281Z,99383.56
2022-11-18T05:54:19.484Z,99395.53
2022-11-18T05:56:46.215Z,99388.31
2022-11-18T05:59:14.043Z,99399.13
2022-11-18T06:02:02.303Z,99405.31
2022-11-18T06:04:37.326Z,99405.81
2022-11-18T06:07:17.912Z,99417.44
2022-11-18T06:09:48.134Z,99416.31
2022-11-18T06:12:17.244Z,99416.84
2022-11-18T06:14:54.693Z,99416.94
2022-11-18T06:17:28.533Z,99421.16
2022-11-18T06:19:55.414Z,99419.16
2022-11-18T06:22:25.877Z,99426.66
2022-11-18T06:25:01.769Z,99424.56
2022-11-18T06:27:28.983Z,99426.94
2022-11-18T06:29:55.619Z,99435.09
2022-11-18T06:32:30.025Z,99436.28
2022-11-18T06:34:56.608Z,99433.56
2022-11-18T06:37:23.557Z,99440.84
2022-11-18T06:39:59.913Z,99443.69
2022-11-18T06:42:48.112Z,99457.22
2022-11-18T06:45:15.087Z,99454.84
2022-11-18T06:47:44.673Z,99463.38
2022-11-18T06:50:14.657Z,99461.38
2022-11-18T06:52:41.320Z,99462.38
2022-11-18T06:55:08.587Z,99466.31
2022-11-18T06:57:35.682Z,99465.13
2022-11-18T07:00:05.062Z,99470.16
2022-11-18T07:02:36.721Z,99478.75
2022-11-18T07:05:18.310Z,99473.72
2022-11-18T07:07:45.183Z,99475.53
2022-11-18T07:10:12.028Z,99480.69
2022-11-18T07:12:38.729Z,99487.81
2022-11-18T07:15:08.741Z,99489.66
2022-11-18T07:17:35.445Z,99496.13
2022-11-18T07:20:02.059Z,99506.47
2022-11-18T07:22:31.914Z,99511.59
2022-11-18T07:24:58.667Z,99515.97
2022-11-18T07:27:25.331Z,99512.25
2022-11-18T07:29:55.780Z,99510.59
2022-11-18T07:32:25.576Z,99513.53
2022-11-18T07:34:58.038Z,99515.16
2022-11-18T07:37:27.500Z,99518.59
2022-11-18T07:39:55.455Z,99523.66
2022-11-18T07:42:26.085Z,99531.53
2022-11-18T07:44:56.126Z,99533.53
2022-11-18T07:47:26.697Z,99536.38
2022-11-18T07:49:56.661Z,99535.63
2022-11-18T07:52:26.486Z,99538.13
2022-11-18T07:54:56.295Z,99539.50
2022-11-18T07:57:25.648Z,99545.31
2022-11-18T07:59:56.017Z,99548.78
2022-11-18T08:02:25.819Z,99547.41
2022-11-18T08:04:55.390Z,99549.72
2022-11-18T08:07:47.555Z,99560.25
2022-11-18T08:10:14.286Z,99563.78
2022-11-18T08:12:40.983Z,99566.06
2022-11-18T08:16:08.415Z,99569.63
2022-11-18T08:19:23.381Z,99579.41
2022-11-18T08:22:06.734Z,99582.34
2022-11-18T08:37:13.192Z,99600.53
2022-11-18T08:44:48.713Z,99602.97
2022-11-18T08:47:15.440Z,99600.41
2022-11-18T08:50:30.374Z,99601.31
2022-11-18T08:53:22.711Z,99599.25
2022-11-18T08:56:00.994Z,99612.72
2022-11-18T08:58:33.195Z,99609.56
2022-11-18T09:01:17.363Z,99604.53
2022-11-18T09:03:44.253Z,99613.50
2022-11-18T09:06:14.924Z,99612.59
2022-11-18T09:11:51.880Z,99616.59
2022-11-18T09:17:10.323Z,99616.72
2022-11-18T09:19:48.655Z,99623.31
2022-11-18T09:22:19.913Z,99630.78
2022-11-18T09:24:56.728Z,99631.41
2022-11-18T09:27:25.952Z,99640.44
2022-11-18T09:29:58.723Z,99634.75
2022-11-18T09:32:25.439Z,99634.91
2022-11-18T09:34:53.552Z,99649.16
2022-11-18T09:37:22.211Z,99646.50
2022-11-18T09:40:45.606Z,99645.06
2022-11-18T09:43:56.065Z,99661.19
2022-11-18T09:50:49.653Z,99668.81
2022-11-18T09:53:32.049Z,99666.50
2022-11-18T09:56:10.951Z,99667.97
2022-11-18T09:59:13.649Z,99675.56
2022-11-18T10:06:51.894Z,99682.25
2022-11-18T10:14:50.636Z,99691.06
2022-11-18T10:17:25.053Z,99696.03
2022-11-18T10:20:08.301Z,99693.41
2022-11-18T10:23:08.602Z,99700.25
2022-11-18T10:25:35.266Z,99700.59
2022-11-18T10:28:18.170Z,99702.06
2022-11-18T10:30:48.970Z,99696.78
2022-11-18T10:33:32.411Z,99695.78
2022-11-18T10:36:36.457Z,99708.38
2022-11-18T10:39:14.879Z,99701.75
2022-11-18T10:42:04.884Z,99716.84
2022-11-18T10:44:42.778Z,99718.66
2022-11-18T10:47:52.173Z,99717.03
2022-11-18T10:50:55.082Z,99721.63
2022-11-18T10:53:46.655Z,99717.56
2022-11-18T10:56:16.785Z,99725.53
2022-11-18T11:01:55.271Z,99725.84
2022-11-18T11:04:27.513Z,99727.28
2022-11-18T11:06:54.374Z,99728.53
2022-11-18T11:09:41.592Z,99730.16
2022-11-18T11:12:28.458Z,99728.03
2022-11-18T11:15:22.191Z,99736.97
2022-11-18T11:18:36.061Z,99738.34
2022-11-18T11:21:02.807Z,99733.19
2022-11-18T11:23:31.121Z,99730.06
2022-11-18T11:29:09.486Z,99744.13
2022-11-18T11:32:01.072Z,99742.97
2022-11-18T11:34:39.932Z,99736.53
2022-11-18T11:37:06.679Z,99744.13
2022-11-18T11:39:47.735Z,99741.97
2022-11-18T11:42:42.226Z,99753.03
2022-11-18T11:45:38.641Z,99754.91
2022-11-18T11:48:18.431Z,99758.00
2022-11-18T11:51:04.439Z,99758.00
2022-11-18T11:54:11.172Z,99754.88
2022-11-18T11:57:06.757Z,99763.47
2022-11-18T11:59:56.474Z,99757.88
2022-11-18T12:02:47.755Z,99762.00
2022-11-18T12:05:34.347Z,99766.13
2022-11-18T12:08:40.577Z,99767.63
2022-11-18T12:11:21.277Z,99757.72
2022-11-18T12:14:06.971Z,99768.28
2022-11-18T12:17:15.569Z,99777.88
2022-11-18T12:19:43.006Z,99769.09
2022-11-18T12:22:10.211Z,99776.38
2022-11-18T12:24:38.485Z,99768.44
2022-11-18T12:27:15.166Z,99762.63
2022-11-18T12:29:56.923Z,99769.41
2022-11-18T12:32:47.043Z,99764.28
2022-11-18T12:35:14.743Z,99761.97
2022-11-18T12:37:53.745Z,99759.16
2022-11-18T12:40:42.519Z,99769.41
2022-11-18T12:43:54.211Z,99763.13
2022-11-18T12:46:45.395Z,99778.34
2022-11-18T12:49:22.025Z,99775.69
2022-11-18T12:51:59.614Z,99784.81
2022-11-18T12:54:32.252Z,99782.28
2022-11-18T12:57:29.840Z,99790.34
2022-11-18T12:59:57.071Z,99793.66
2022-11-18T13:02:28.567Z,99784.50
2022-11-18T13:05:04.772Z,99788.97
2022-11-18T13:07:52.490Z,99787.66
2022-11-18T13:10:25.387Z,99798.00
2022-11-18T13:12:52.922Z,99799.31
2022-11-18T13:15:38.761Z,99806.13
2022-11-18T13:18:08.162Z,99805.44
2022-11-18T13:20:38.546Z,99820.41
2022-11-18T13:23:32.340Z,99813.16
2022-11-18T13:26:08.835Z,99818.81
2022-11-18T13:28:47.025Z,99810.31
2022-11-18T13:31:25.635Z,99816.13
2022-11-18T13:33:53.180Z,99820.06
2022-11-18T13:36:37.087Z,99815.00
2022-11-18T13:39:33.627Z,99818.25
2022-11-18T13:42:17.755Z,99812.28
2022-11-18T13:45:02.014Z,99818.31
2022-11-18T13:47:46.231Z,99823.28
2022-11-18T13:50:25.291Z,99818.06
2022-11-18T13:53:04.101Z,99822.81
2022-11-18T13:55:40.752Z,99825.34
2022-11-18T13:58:19.829Z,99824.16
2022-11-18T14:01:01.267Z,99832.06
2022-11-18T14:03:40.730Z,99831.53
2022-11-18T14:06:10.665Z,99842.56
2022-11-18T14:08:39.269Z,99836.91
2022-11-18T14:11:06.941Z,99836.25
2022-11-18T14:13:48.705Z,99805.41
2022-11-18T14:16:18.419Z,99832.63
2022-11-18T14:18:46.758Z,99839.34
2022-11-18T14:21:27.255Z,99843.25
2022-11-18T14:23:55.246Z,99847.41
2022-11-18T14:26:29.016Z,99850.19
2022-11-18T14:29:07.771Z,99846.59
2022-11-18T14:32:17.500Z,99860.56
2022-11-18T14:35:01.502Z,99870.94
2022-11-18T14:38:00.088Z,99866.50
2022-11-18T14:41:00.002Z,99874.78
2022-11-18T14:43:27.333Z,99862.28
2022-11-18T14:45:57.465Z,99872.69
2022-11-18T14:48:31.094Z,99865.53
2022-11-18T14:50:59.694Z,99867.03
2022-11-18T14:53:26.482Z,99873.44
2022-11-18T14:55:54.123Z,99872.28
2022-11-18T14:58:20.829Z,99875.25
2022-11-18T15:00:53.022Z,99876.59
2022-11-18T15:03:20.699Z,99884.75
2022-11-18T15:05:47.589Z,99881.66
2022-11-18T15:08:17.662Z,99885.13
2022-11-18T15:10:48.505Z,99893.03
2022-11-18T15:13:18.350Z,99895.69
2022-11-18T15:15:45.083Z,99903.00
2022-11-18T15:18:14.198Z,99898.41
2022-11-18T15:20:54.722Z,99907.53
2022-11-18T15:23:33.730Z,99909.56
2022-11-18T15:26:12.313Z,99912.91
2022-11-18T15:28:56.821Z,99921.88
2022-11-18T15:32:03.049Z,99925.66
2022-11-18T15:34:41.552Z,99929.09
2022-11-18T15:37:12.087Z,99931.06
2022-11-18T15:45:01.774Z,99946.88
2022-11-18T15:58:41.030Z,99949.50
2022-11-18T16:01:46.140Z,99951.31
2022-11-18T16:04:31.267Z,99956.59
2022-11-18T16:07:29.438Z,99955.53
2022-11-18T16:10:34.206Z,99963.00
2022-11-18T16:13:07.281Z,99968.41
2022-11-18T16:15:50.630Z,99972.31
2022-11-18T16:18:19.606Z,99974.28
2022-11-18T16:21:11.462Z,99966.66
2022-11-18T16:23:40.535Z,99978.34
2022-11-18T16:28:52.325Z,99976.50
2022-11-18T16:31:48.512Z,99981.50
2022-11-18T16:34:35.529Z,99994.56
2022-11-18T16:37:02.348Z,99995.69
2022-11-18T16:39:29.393Z,99994.56
2022-11-18T16:42:08.378Z,99995.69
2022-11-18T16:44:37.076Z,100000.81
2022-11-18T16:47:13.888Z,100005.66
2022-11-18T16:49:41.822Z,100004.19
2022-11-18T16:52:38.920Z,100008.59
2022-11-18T16:55:05.819Z,100016.78
2022-11-18T16:57:35.739Z,100007.50
2022-11-18T17:00:03.961Z,100013.88
2022-11-18T17:02:34.809Z,100014.63
2022-11-18T17:05:06.094Z,100014.75
2022-11-18T17:08:03.396Z,100016.69
2022-11-18T17:10:31.445Z,100018.50
2022-11-18T17:12:58.396Z,100020.47
2022-11-18T17:18:19.641Z,100026.41
2022-11-18T17:20:48.358Z,100029.22
2022-11-18T17:23:27.252Z,100031.84
2022-11-18T17:25:54.609Z,100042.09
2022-11-18T17:28:36.688Z,100043.06
2022-11-18T17:31:41.652Z,100047.66
2022-11-18T17:37:12.479Z,100035.84
2022-11-18T17:39:41.294Z,100041.41
2022-11-18T17:42:31.862Z,100049.56
2022-11-18T17:45:02.601Z,100050.94
2022-11-18T17:47:43.487Z,100056.63
2022-11-18T17:50:11.467Z,100063.72
2022-11-18T17:52:38.239Z,100064.56
2022-11-18T17:55:08.290Z,100075.63
2022-11-18T17:57:34.951Z,100072.84
2022-11-18T18:00:01.780Z,100072.44
2022-11-18T18:02:34.229Z,100075.22
2022-11-18T18:05:00.853Z,100085.63
2022-11-18T18:07:29.972Z,100084.50
2022-11-18T18:09:57.850Z,100092.38
2022-11-18T18:12:43.324Z,100096.00
2022-11-18T18:15:10.378Z,100096.69
2022-11-18T18:17:40.363Z,100104.47
2022-11-18T18:20:07.545Z,100108.06
2022-11-18T18:22:34.375Z,100115.13
2022-11-18T18:25:01.119Z,100114.41
2022-11-18T18:27:31.496Z,100120.13
2022-11-18T18:30:01.025Z,100119.69
2022-11-18T18:32:29.483Z,100122.59
2022-11-18T18:34:56.422Z,100123.13
2022-11-18T18:37:24.220Z,100125.66
2022-11-18T18:39:54.344Z,100124.81
2022-11-18T18:42:28.680Z,100130.06
2022-11-18T18:45:22.130Z,100139.78
2022-11-18T18:47:48.840Z,100128.41
2022-11-18T18:50:15.649Z,100133.53
2022-11-18T18:52:42.780Z,100133.81
2022-11-18T18:55:11.895Z,100140.47
2022-11-18T18:57:40.589Z,100138.25
2022-11-18T19:00:08.121Z,100139.34
2022-11-18T19:02:34.774Z,100132.84
2022-11-18T19:05:01.592Z,100142.13
2022-11-18T19:07:31.467Z,100141.72
2022-11-18T19:09:58.379Z,100146.44
2022-11-18T19:12:43.241Z,100153.78
2022-11-18T19:15:14.022Z,100148.66
2022-11-18T19:17:41.359Z,100145.72
2022-11-18T19:23:22.304Z,100150.03
2022-11-18T19:25:48.971Z,100156.13
2022-11-18T19:28:19.285Z,100148.06
2022-11-18T19:30:46.367Z,100142.53
2022-11-18T19:33:20.527Z,100150.44
2022-11-18T19:35:47.321Z,100152.78
2022-11-18T19:38:24.393Z,100155.00
2022-11-18T19:41:05.434Z,100165.81
2022-11-18T19:43:32.354Z,100163.03
2022-11-18T19:45:59.243Z,100159.03
2022-11-18T19:48:40.215Z,100163.00
2022-11-18T19:51:20.270Z,100151.63
2022-11-18T19:53:46.983Z,100154.28
2022-11-18T19:56:17.055Z,100157.22
2022-11-18T19:58:54.799Z,100163.88
2022-11-18T20:01:23.812Z,100160.38
2022-11-18T20:03:52.856Z,100165.06
2022-11-18T20:06:23.147Z,100161.34
2022-11-18T20:08:49.882Z,100163.88
2022-11-18T20:11:20.553Z,100168.41
2022-11-18T20:13:56.484Z,100155.25
2022-11-18T20:16:24.951Z,100158.28
2022-11-18T20:19:05.211Z,100164.25
2022-11-18T20:21:40.889Z,100158.44
2022-11-18T20:24:16.377Z,100161.75
2022-11-18T20:26:51.962Z,100162.44
2022-11-18T20:29:19.959Z,100158.56
2022-11-18T20:31:47.030Z,100169.91
2022-11-18T20:34:24.668Z,100165.06
2022-11-18T20:37:18.242Z,100162.44
2022-11-18T20:40:10.777Z,100156.75
2022-11-18T20:42:57.311Z,100153.84
2022-11-18T20:45:26.879Z,100155.34
2022-11-18T20:47:54.539Z,100152.97
2022-11-18T20:50:21.347Z,100165.19
2022-11-18T20:52:48.019Z,100149.53
2022-11-18T20:55:15.870Z,100157.31
2022-11-18T20:57:42.752Z,100148.16
2022-11-18T21:00:10.027Z,100149.53
2022-11-18T21:02:36.606Z,100155.19
2022-11-18T21:05:06.077Z,100154.13
2022-11-18T21:07:33.845Z,100171.56
2022-11-18T21:10:00.697Z,100167.66
2022-11-18T21:12:27.382Z,100165.44
2022-11-18T21:14:53.958Z,100170.97
2022-11-18T21:17:22.933Z,100164.09
2022-11-18T21:19:51.585Z,100159.63
2022-11-18T21:22:26.407Z,100171.28
2022-11-18T21:24:56.056Z,100167.66
2022-11-18T21:27:25.515Z,100171.94
2022-11-18T21:29:56.962Z,100164.91
2022-11-18T21:32:23.671Z,100166.25
2022-11-18T21:34:54.299Z,100150.63
2022-11-18T21:37:23.531Z,100156.41
2022-11-18T21:39:53.604Z,100152.81
2022-11-18T21:42:20.188Z,100155.88
2022-11-18T21:44:49.653Z,100153.34
2022-11-18T21:47:16.289Z,100151.44
2022-11-18T21:49:42.962Z,100150.72
2022-11-18T21:52:12.120Z,100145.47
2022-11-18T21:54:38.771Z,100141.88
2022-11-18T21:57:05.465Z,100150.06
2022-11-18T21:59:32.106Z,100140.47
2022-11-18T22:01:58.733Z,100140.34
2022-11-18T22:04:43.886Z,100140.16
2022-11-18T22:07:10.638Z,100151.25
2022-11-18T22:09:37.300Z,100143.25
2022-11-18T22:12:05.726Z,100142.41
2022-11-18T22:14:32.419Z,100143.38
2022-11-18T22:16:59.055Z,100144.88
2022-11-18T22:19:25.636Z,100152.50
2022-11-18T22:21:52.215Z,100158.75
2022-11-18T22:24:18.797Z,100160.97
2022-11-18T22:26:45.380Z,100150.44
2022-11-18T22:29:11.985Z,100157.75
2022-11-18T22:31:38.510Z,100153.84
2022-11-18T22:34:05.095Z,100158.84
2022-11-18T22:36:40.155Z,100151.03
2022-11-18T22:39:09.325Z,100164.88
2022-11-18T22:41:54.474Z,100159.63
2022-11-18T22:44:21.171Z,100151.22
2022-11-18T22:46:47.805Z,100157.25
2022-11-18T22:49:22.132Z,100153.94
2022-11-18T22:51:49.026Z,100152.97
2022-11-18T22:54:37.850Z,100149.53
2022-11-18T22:57:06.618Z,100148.94
2022-11-18T22:59:33.234Z,100148.38
2022-11-18T23:02:01.681Z,100151.00
2022-11-18T23:04:28.332Z,100154.19
2022-11-18T23:06:55.019Z,100149.09
2022-11-18T23:09:22.150Z,100153.91
2022-11-18T23:12:11.811Z,100148.50
2022-11-18T23:14:38.420Z,100165.94
2022-11-18T23:17:05.522Z,100161.00
2022-11-18T23:19:32.132Z,100162.75
2022-11-18T23:21:58.858Z,100156.66
2022-11-18T23:24:30.320Z,100160.69
2022-11-18T23:26:56.995Z,100154.59
2022-11-18T23:29:23.540Z,100153.22
2022-11-18T23:31:50.102Z,100151.72
2022-11-18T23:34:17.097Z,100162.59
2022-11-18T23:36:47.024Z,100160.03
2022-11-18T23:39:13.727Z,100159.59
2022-11-18T23:41:40.400Z,100165.50
2022-11-18T23:44:07.438Z,100157.78
2022-11-18T23:46:34.598Z,100160.13
2022-11-18T23:49:05.671Z,100152.69
2022-11-18T23:51:38.769Z,100150.16
2022-11-18T23:54:05.431Z,100150.16
2022-11-18T23:56:39.433Z,100150.16
2022-11-18T23:59:08.498Z,100152.94
